sensor_id;sensor_type;location;lat;lon;timestamp;temperature;humidity
15815;DHT22;8008;50.024;8.172;2023-05-10T03:00:37;13.30;99.90
15815;DHT22;8008;50.024;8.172;2023-05-10T03:03:07;13.40;99.90
15815;DHT22;8008;50.024;8.172;2023-05-10T03:05:35;13.40;99.90
15815;DHT22;8008;50.024;8.172;2023-05-10T03:08:04;13.40;99.90
15815;DHT22;8008;50.024;8.172;2023-05-10T03:10:40;13.30;99.90
15815;DHT22;8008;50.024;8.172;2023-05-10T03:13:16;13.40;99.90
15815;DHT22;8008;50.024;8.172;2023-05-10T03:15:57;13.40;99.90
15815;DHT22;8008;50.024;8.172;2023-05-10T03:18:31;13.40;99.90
15815;DHT22;8008;50.024;8.172;2023-05-10T03:21:03;13.40;99.90
15815;DHT22;8008;50.024;8.172;2023-05-10T03:23:35;13.40;99.90
15815;DHT22;8008;50.024;8.172;2023-05-10T03:26:04;13.60;99.90
15815;DHT22;8008;50.024;8.172;2023-05-10T03:28:33;13.60;99.90
15815;DHT22;8008;50.024;8.172;2023-05-10T03:31:05;13.60;99.90
15815;DHT22;8008;50.024;8.172;2023-05-10T03:33:34;13.70;99.90
15815;DHT22;8008;50.024;8.172;2023-05-10T03:36:02;13.80;99.90
15815;DHT22;8008;50.024;8.172;2023-05-10T03:38:30;13.70;99.90
15815;DHT22;8008;50.024;8.172;2023-05-10T03:40:58;13.70;99.90
15815;DHT22;8008;50.024;8.172;2023-05-10T03:43:26;13.70;99.90
15815;DHT22;8008;50.024;8.172;2023-05-10T03:45:54;13.60;99.90
15815;DHT22;8008;50.024;8.172;2023-05-10T03:48:23;13.50;99.90
15815;DHT22;8008;50.024;8.172;2023-05-10T03:50:52;13.50;99.90
15815;DHT22;8008;50.024;8.172;2023-05-10T03:53:20;13.50;99.90
15815;DHT22;8008;50.024;8.172;2023-05-10T03:55:49;13.40;99.90
15815;DHT22;8008;50.024;8.172;2023-05-10T03:58:17;13.40;99.90
15815;DHT22;8008;50.024;8.172;2023-05-10T04:00:45;13.30;99.90
15815;DHT22;8008;50.024;8.172;2023-05-10T04:03:14;13.30;99.90
15815;DHT22;8008;50.024;8.172;2023-05-10T04:05:43;13.30;99.90
15815;DHT22;8008;50.024;8.172;2023-05-10T04:08:11;13.30;99.90
15815;DHT22;8008;50.024;8.172;2023-05-10T04:10:39;13.20;99.90
15815;DHT22;8008;50.024;8.172;2023-05-10T04:13:07;13.30;99.90
15815;DHT22;8008;50.024;8.172;2023-05-10T04:15:35;13.30;99.90
15815;DHT22;8008;50.024;8.172;2023-05-10T04:18:03;13.30;99.90
15815;DHT22;8008;50.024;8.172;2023-05-10T04:20:34;13.30;99.90
15815;DHT22;8008;50.024;8.172;2023-05-10T04:23:03;13.40;99.90
15815;DHT22;8008;50.024;8.172;2023-05-10T04:25:33;13.40;99.90
15815;DHT22;8008;50.024;8.172;2023-05-10T04:28:01;13.50;99.90
15815;DHT22;8008;50.024;8.172;2023-05-10T04:30:29;13.50;99.90
15815;DHT22;8008;50.024;8.172;2023-05-10T04:32:57;13.50;99.90
15815;DHT22;8008;50.024;8.172;2023-05-10T04:35:25;13.50;99.90
15815;DHT22;8008;50.024;8.172;2023-05-10T04:37:53;13.50;99.90
15815;DHT22;8008;50.024;8.172;2023-05-10T04:40:23;13.50;99.90
15815;DHT22;8008;50.024;8.172;2023-05-10T04:42:51;13.50;99.90
15815;DHT22;8008;50.024;8.172;2023-05-10T04:45:19;13.40;99.90
15815;DHT22;8008;50.024;8.172;2023-05-10T04:47:46;13.30;99.90
15815;DHT22;8008;50.024;8.172;2023-05-10T04:50:14;13.30;99.90
15815;DHT22;8008;50.024;8.172;2023-05-10T04:52:43;13.30;99.90
15815;DHT22;8008;50.024;8.172;2023-05-10T04:55:10;13.20;99.90
15815;DHT22;8008;50.024;8.172;2023-05-10T04:57:40;13.20;99.90
15815;DHT22;8008;50.024;8.172;2023-05-10T05:00:09;13.20;99.90
15815;DHT22;8008;50.024;8.172;2023-05-10T05:02:36;13.20;99.90
15815;DHT22;8008;50.024;8.172;2023-05-10T05:05:05;13.30;99.90
15815;DHT22;8008;50.024;8.172;2023-05-10T05:07:33;13.30;99.90
15815;DHT22;8008;50.024;8.172;2023-05-10T05:10:01;13.30;99.90
15815;DHT22;8008;50.024;8.172;2023-05-10T05:12:29;13.30;99.90
15815;DHT22;8008;50.024;8.172;2023-05-10T05:14:59;13.30;99.90
15815;DHT22;8008;50.024;8.172;2023-05-10T05:17:27;13.30;99.90
15815;DHT22;8008;50.024;8.172;2023-05-10T05:19:54;13.30;99.90
15815;DHT22;8008;50.024;8.172;2023-05-10T05:22:22;13.40;99.90
15815;DHT22;8008;50.024;8.172;2023-05-10T05:24:54;13.30;99.90
15815;DHT22;8008;50.024;8.172;2023-05-10T05:27:23;13.30;99.90
15815;DHT22;8008;50.024;8.172;2023-05-10T05:29:52;13.40;99.90
15815;DHT22;8008;50.024;8.172;2023-05-10T05:32:22;13.40;99.90
15815;DHT22;8008;50.024;8.172;2023-05-10T05:34:50;13.40;99.90
15815;DHT22;8008;50.024;8.172;2023-05-10T05:37:19;13.40;99.90
15815;DHT22;8008;50.024;8.172;2023-05-10T05:39:48;13.40;99.90
15815;DHT22;8008;50.024;8.172;2023-05-10T05:42:16;13.40;99.90
15815;DHT22;8008;50.024;8.172;2023-05-10T05:44:45;13.40;99.90
15815;DHT22;8008;50.024;8.172;2023-05-10T05:47:13;13.40;99.90
15815;DHT22;8008;50.024;8.172;2023-05-10T05:49:42;13.40;99.90
15815;DHT22;8008;50.024;8.172;2023-05-10T05:52:12;13.30;99.90
15815;DHT22;8008;50.024;8.172;2023-05-10T05:54:40;13.30;99.90
15815;DHT22;8008;50.024;8.172;2023-05-10T05:57:08;13.30;99.90
15815;DHT22;8008;50.024;8.172;2023-05-10T05:59:35;13.30;99.90
15815;DHT22;8008;50.024;8.172;2023-05-10T06:02:08;13.40;99.90
15815;DHT22;8008;50.024;8.172;2023-05-10T06:04:36;13.40;99.90
15815;DHT22;8008;50.024;8.172;2023-05-10T06:07:06;13.50;99.90
15815;DHT22;8008;50.024;8.172;2023-05-10T06:09:34;13.50;99.90
15815;DHT22;8008;50.024;8.172;2023-05-10T06:12:02;13.60;99.90
15815;DHT22;8008;50.024;8.172;2023-05-10T06:14:30;13.60;99.90
15815;DHT22;8008;50.024;8.172;2023-05-10T06:16:58;13.70;99.90
15815;DHT22;8008;50.024;8.172;2023-05-10T06:19:26;13.80;99.90
15815;DHT22;8008;50.024;8.172;2023-05-10T06:21:54;13.90;99.90
15815;DHT22;8008;50.024;8.172;2023-05-10T06:24:24;13.90;99.90
15815;DHT22;8008;50.024;8.172;2023-05-10T06:26:51;13.90;99.90
15815;DHT22;8008;50.024;8.172;2023-05-10T06:29:19;14.10;99.90
15815;DHT22;8008;50.024;8.172;2023-05-10T06:31:47;14.20;99.90
15815;DHT22;8008;50.024;8.172;2023-05-10T06:34:15;14.20;99.90
15815;DHT22;8008;50.024;8.172;2023-05-10T06:36:43;14.20;99.90
15815;DHT22;8008;50.024;8.172;2023-05-10T06:39:11;14.30;99.90
15815;DHT22;8008;50.024;8.172;2023-05-10T06:41:40;14.20;99.90
15815;DHT22;8008;50.024;8.172;2023-05-10T06:44:08;14.20;99.90
15815;DHT22;8008;50.024;8.172;2023-05-10T06:46:36;14.20;99.90
15815;DHT22;8008;50.024;8.172;2023-05-10T06:49:04;14.30;99.90
15815;DHT22;8008;50.024;8.172;2023-05-10T06:51:32;14.30;99.90
15815;DHT22;8008;50.024;8.172;2023-05-10T06:54:00;14.30;99.90
15815;DHT22;8008;50.024;8.172;2023-05-10T06:56:28;14.30;99.90
15815;DHT22;8008;50.024;8.172;2023-05-10T06:58:57;14.40;99.90
15815;DHT22;8008;50.024;8.172;2023-05-10T07:01:25;14.50;99.90
15815;DHT22;8008;50.024;8.172;2023-05-10T07:03:53;14.60;99.90
15815;DHT22;8008;50.024;8.172;2023-05-10T07:06:21;14.60;99.90
15815;DHT22;8008;50.024;8.172;2023-05-10T07:08:59;14.70;99.90
15815;DHT22;8008;50.024;8.172;2023-05-10T07:11:27;14.60;99.90
15815;DHT22;8008;50.024;8.172;2023-05-10T07:13:57;14.60;99.90
15815;DHT22;8008;50.024;8.172;2023-05-10T07:16:24;14.60;99.90
15815;DHT22;8008;50.024;8.172;2023-05-10T07:18:52;14.60;99.90
15815;DHT22;8008;50.024;8.172;2023-05-10T07:21:20;14.70;99.90
15815;DHT22;8008;50.024;8.172;2023-05-10T07:23:50;14.80;99.90
15815;DHT22;8008;50.024;8.172;2023-05-10T07:26:18;14.80;99.90
15815;DHT22;8008;50.024;8.172;2023-05-10T07:28:47;14.80;99.90
15815;DHT22;8008;50.024;8.172;2023-05-10T07:31:16;14.80;99.90
15815;DHT22;8008;50.024;8.172;2023-05-10T07:33:44;15.00;99.90
15815;DHT22;8008;50.024;8.172;2023-05-10T07:36:12;15.00;99.90
15815;DHT22;8008;50.024;8.172;2023-05-10T07:38:40;15.10;99.90
15815;DHT22;8008;50.024;8.172;2023-05-10T07:41:08;15.10;99.90
15815;DHT22;8008;50.024;8.172;2023-05-10T07:43:36;15.20;99.90
15815;DHT22;8008;50.024;8.172;2023-05-10T07:46:04;15.30;99.90
15815;DHT22;8008;50.024;8.172;2023-05-10T07:48:33;15.20;99.90
15815;DHT22;8008;50.024;8.172;2023-05-10T07:51:01;15.40;99.90
15815;DHT22;8008;50.024;8.172;2023-05-10T07:53:29;15.30;99.90
15815;DHT22;8008;50.024;8.172;2023-05-10T07:55:57;15.30;99.90
15815;DHT22;8008;50.024;8.172;2023-05-10T07:58:26;15.20;99.90
15815;DHT22;8008;50.024;8.172;2023-05-10T08:00:54;15.20;99.90
15815;DHT22;8008;50.024;8.172;2023-05-10T08:03:23;15.20;99.90
15815;DHT22;8008;50.024;8.172;2023-05-10T08:05:52;15.20;99.90
15815;DHT22;8008;50.024;8.172;2023-05-10T08:08:20;15.30;99.90
15815;DHT22;8008;50.024;8.172;2023-05-10T08:10:49;15.40;99.90
15815;DHT22;8008;50.024;8.172;2023-05-10T08:13:17;15.40;99.90
15815;DHT22;8008;50.024;8.172;2023-05-10T08:15:45;15.50;99.90
15815;DHT22;8008;50.024;8.172;2023-05-10T08:18:14;15.70;99.90
15815;DHT22;8008;50.024;8.172;2023-05-10T08:20:41;15.80;99.90
15815;DHT22;8008;50.024;8.172;2023-05-10T08:23:12;15.90;99.90
15815;DHT22;8008;50.024;8.172;2023-05-10T08:25:40;16.10;99.90
15815;DHT22;8008;50.024;8.172;2023-05-10T08:28:08;16.20;99.90
15815;DHT22;8008;50.024;8.172;2023-05-10T08:30:37;16.10;99.90
15815;DHT22;8008;50.024;8.172;2023-05-10T08:33:05;16.10;99.90
15815;DHT22;8008;50.024;8.172;2023-05-10T08:35:33;15.90;99.90
15815;DHT22;8008;50.024;8.172;2023-05-10T08:38:01;15.70;99.90
15815;DHT22;8008;50.024;8.172;2023-05-10T08:40:30;15.60;99.90
15815;DHT22;8008;50.024;8.172;2023-05-10T08:43:04;15.40;99.90
15815;DHT22;8008;50.024;8.172;2023-05-10T08:45:36;15.10;99.90
15815;DHT22;8008;50.024;8.172;2023-05-10T08:48:06;14.90;99.90
15815;DHT22;8008;50.024;8.172;2023-05-10T08:50:35;14.70;99.90
15815;DHT22;8008;50.024;8.172;2023-05-10T08:53:06;14.70;99.90
15815;DHT22;8008;50.024;8.172;2023-05-10T08:55:36;14.70;99.90
15815;DHT22;8008;50.024;8.172;2023-05-10T08:58:05;14.80;99.90
15815;DHT22;8008;50.024;8.172;2023-05-10T09:00:33;15.00;99.90
15815;DHT22;8008;50.024;8.172;2023-05-10T09:03:03;15.20;99.90
15815;DHT22;8008;50.024;8.172;2023-05-10T09:05:32;15.30;99.90
15815;DHT22;8008;50.024;8.172;2023-05-10T09:07:59;15.50;99.90
15815;DHT22;8008;50.024;8.172;2023-05-10T09:10:28;15.60;99.90
15815;DHT22;8008;50.024;8.172;2023-05-10T09:12:58;15.70;99.90
15815;DHT22;8008;50.024;8.172;2023-05-10T09:15:26;15.80;99.90
15815;DHT22;8008;50.024;8.172;2023-05-10T09:17:54;15.80;99.90
15815;DHT22;8008;50.024;8.172;2023-05-10T09:20:22;15.80;99.90
15815;DHT22;8008;50.024;8.172;2023-05-10T09:22:50;15.60;99.90
15815;DHT22;8008;50.024;8.172;2023-05-10T09:25:18;15.00;99.90
15815;DHT22;8008;50.024;8.172;2023-05-10T09:27:47;14.60;99.90
15815;DHT22;8008;50.024;8.172;2023-05-10T09:30:23;14.30;99.90
15815;DHT22;8008;50.024;8.172;2023-05-10T09:32:52;14.30;99.90
15815;DHT22;8008;50.024;8.172;2023-05-10T09:35:22;14.30;99.90
15815;DHT22;8008;50.024;8.172;2023-05-10T09:37:55;14.30;99.90
15815;DHT22;8008;50.024;8.172;2023-05-10T09:40:24;14.40;99.90
15815;DHT22;8008;50.024;8.172;2023-05-10T09:42:56;14.50;99.90
15815;DHT22;8008;50.024;8.172;2023-05-10T09:45:28;14.70;99.90
15815;DHT22;8008;50.024;8.172;2023-05-10T09:47:56;14.90;99.90
15815;DHT22;8008;50.024;8.172;2023-05-10T09:50:26;15.00;99.90
15815;DHT22;8008;50.024;8.172;2023-05-10T09:52:55;15.20;99.90
15815;DHT22;8008;50.024;8.172;2023-05-10T09:55:37;15.40;99.90
15815;DHT22;8008;50.024;8.172;2023-05-10T09:58:06;15.60;99.90
15815;DHT22;8008;50.024;8.172;2023-05-10T10:00:40;15.70;99.90
15815;DHT22;8008;50.024;8.172;2023-05-10T10:03:13;15.80;99.90
15815;DHT22;8008;50.024;8.172;2023-05-10T10:05:42;16.10;99.90
15815;DHT22;8008;50.024;8.172;2023-05-10T10:08:11;16.20;99.90
15815;DHT22;8008;50.024;8.172;2023-05-10T10:10:40;16.20;99.90
15815;DHT22;8008;50.024;8.172;2023-05-10T10:13:08;16.30;99.90
15815;DHT22;8008;50.024;8.172;2023-05-10T10:15:36;16.40;99.90
15815;DHT22;8008;50.024;8.172;2023-05-10T10:18:06;16.60;99.90
15815;DHT22;8008;50.024;8.172;2023-05-10T10:20:37;16.70;99.90
15815;DHT22;8008;50.024;8.172;2023-05-10T10:23:05;16.80;99.90
15815;DHT22;8008;50.024;8.172;2023-05-10T10:25:33;17.00;99.90
15815;DHT22;8008;50.024;8.172;2023-05-10T10:28:14;17.00;99.90
15815;DHT22;8008;50.024;8.172;2023-05-10T10:30:47;17.00;99.90
15815;DHT22;8008;50.024;8.172;2023-05-10T10:33:36;17.10;99.90
15815;DHT22;8008;50.024;8.172;2023-05-10T10:36:07;17.30;99.90
15815;DHT22;8008;50.024;8.172;2023-05-10T10:38:56;17.40;99.90
15815;DHT22;8008;50.024;8.172;2023-05-10T10:41:31;17.50;99.90
15815;DHT22;8008;50.024;8.172;2023-05-10T10:44:36;17.70;99.90
15815;DHT22;8008;50.024;8.172;2023-05-10T10:47:07;17.70;99.90
15815;DHT22;8008;50.024;8.172;2023-05-10T10:49:48;17.60;99.90
15815;DHT22;8008;50.024;8.172;2023-05-10T10:52:25;17.60;99.90
15815;DHT22;8008;50.024;8.172;2023-05-10T10:55:00;17.80;99.90
15815;DHT22;8008;50.024;8.172;2023-05-10T10:57:31;17.90;99.90
15815;DHT22;8008;50.024;8.172;2023-05-10T11:00:21;18.20;99.90
15815;DHT22;8008;50.024;8.172;2023-05-10T11:02:52;18.10;99.90
15815;DHT22;8008;50.024;8.172;2023-05-10T11:05:35;18.10;99.90
15815;DHT22;8008;50.024;8.172;2023-05-10T11:08:10;17.90;99.90
15815;DHT22;8008;50.024;8.172;2023-05-10T11:10:38;18.10;99.90
15815;DHT22;8008;50.024;8.172;2023-05-10T11:13:08;18.10;99.90
15815;DHT22;8008;50.024;8.172;2023-05-10T11:15:38;18.20;99.90
15815;DHT22;8008;50.024;8.172;2023-05-10T11:18:19;18.40;99.90
15815;DHT22;8008;50.024;8.172;2023-05-10T11:20:52;18.60;99.90
15815;DHT22;8008;50.024;8.172;2023-05-10T11:23:20;18.60;99.90
15815;DHT22;8008;50.024;8.172;2023-05-10T11:25:49;18.60;99.90
15815;DHT22;8008;50.024;8.172;2023-05-10T11:28:18;18.60;99.90
15815;DHT22;8008;50.024;8.172;2023-05-10T11:30:47;18.90;99.90
15815;DHT22;8008;50.024;8.172;2023-05-10T11:33:16;19.00;99.90
15815;DHT22;8008;50.024;8.172;2023-05-10T11:35:45;19.30;99.90
15815;DHT22;8008;50.024;8.172;2023-05-10T11:38:14;19.60;99.90
15815;DHT22;8008;50.024;8.172;2023-05-10T11:40:42;19.90;99.90
15815;DHT22;8008;50.024;8.172;2023-05-10T11:43:10;19.60;99.90
15815;DHT22;8008;50.024;8.172;2023-05-10T11:45:40;19.70;99.90
15815;DHT22;8008;50.024;8.172;2023-05-10T11:48:08;19.30;99.90
15815;DHT22;8008;50.024;8.172;2023-05-10T11:50:36;19.10;99.90
15815;DHT22;8008;50.024;8.172;2023-05-10T11:53:04;19.10;99.90
15815;DHT22;8008;50.024;8.172;2023-05-10T11:55:34;19.20;99.90
15815;DHT22;8008;50.024;8.172;2023-05-10T11:58:02;19.30;99.90
15815;DHT22;8008;50.024;8.172;2023-05-10T12:00:31;19.40;99.90
15815;DHT22;8008;50.024;8.172;2023-05-10T12:03:00;19.80;99.90
15815;DHT22;8008;50.024;8.172;2023-05-10T12:05:31;19.90;99.90
15815;DHT22;8008;50.024;8.172;2023-05-10T12:08:13;19.70;99.90
15815;DHT22;8008;50.024;8.172;2023-05-10T12:10:43;19.30;99.90
15815;DHT22;8008;50.024;8.172;2023-05-10T12:13:11;19.10;99.90
15815;DHT22;8008;50.024;8.172;2023-05-10T12:15:41;19.10;99.90
15815;DHT22;8008;50.024;8.172;2023-05-10T12:18:10;19.10;99.90
15815;DHT22;8008;50.024;8.172;2023-05-10T12:20:38;18.90;99.90
15815;DHT22;8008;50.024;8.172;2023-05-10T12:23:08;18.50;99.90
15815;DHT22;8008;50.024;8.172;2023-05-10T12:25:37;18.50;99.90
15815;DHT22;8008;50.024;8.172;2023-05-10T12:28:08;18.70;99.90
15815;DHT22;8008;50.024;8.172;2023-05-10T12:30:37;19.10;99.90
15815;DHT22;8008;50.024;8.172;2023-05-10T12:33:08;19.80;99.90
15815;DHT22;8008;50.024;8.172;2023-05-10T12:35:47;20.30;99.90
15815;DHT22;8008;50.024;8.172;2023-05-10T12:38:28;20.50;99.90
15815;DHT22;8008;50.024;8.172;2023-05-10T12:40:57;19.90;99.90
15815;DHT22;8008;50.024;8.172;2023-05-10T12:43:27;19.90;99.90
15815;DHT22;8008;50.024;8.172;2023-05-10T12:45:55;20.30;99.90
15815;DHT22;8008;50.024;8.172;2023-05-10T12:48:23;19.80;99.90
15815;DHT22;8008;50.024;8.172;2023-05-10T12:50:52;19.50;99.90
15815;DHT22;8008;50.024;8.172;2023-05-10T12:53:20;19.10;99.90
15815;DHT22;8008;50.024;8.172;2023-05-10T12:55:48;19.00;99.90
15815;DHT22;8008;50.024;8.172;2023-05-10T12:58:16;18.90;99.90
15815;DHT22;8008;50.024;8.172;2023-05-10T13:01:03;18.80;99.90
15815;DHT22;8008;50.024;8.172;2023-05-10T13:03:31;18.80;99.90
15815;DHT22;8008;50.024;8.172;2023-05-10T13:05:59;18.80;99.90
15815;DHT22;8008;50.024;8.172;2023-05-10T13:08:27;19.20;99.90
15815;DHT22;8008;50.024;8.172;2023-05-10T13:10:59;19.40;99.90
15815;DHT22;8008;50.024;8.172;2023-05-10T13:13:28;19.50;99.90
15815;DHT22;8008;50.024;8.172;2023-05-10T13:15:56;19.60;99.90
15815;DHT22;8008;50.024;8.172;2023-05-10T13:18:25;19.30;99.90
15815;DHT22;8008;50.024;8.172;2023-05-10T13:20:54;19.20;99.90
15815;DHT22;8008;50.024;8.172;2023-05-10T13:23:22;19.20;99.90
15815;DHT22;8008;50.024;8.172;2023-05-10T13:25:50;19.70;99.90
15815;DHT22;8008;50.024;8.172;2023-05-10T13:28:18;19.80;99.90
15815;DHT22;8008;50.024;8.172;2023-05-10T13:30:46;20.30;99.90
15815;DHT22;8008;50.024;8.172;2023-05-10T13:33:14;21.00;99.90
15815;DHT22;8008;50.024;8.172;2023-05-10T13:35:43;20.90;99.50
15815;DHT22;8008;50.024;8.172;2023-05-10T13:38:12;20.70;98.20
15815;DHT22;8008;50.024;8.172;2023-05-10T13:40:45;20.50;98.20
15815;DHT22;8008;50.024;8.172;2023-05-10T13:43:13;20.80;98.70
15815;DHT22;8008;50.024;8.172;2023-05-10T13:45:41;21.60;99.20
15815;DHT22;8008;50.024;8.172;2023-05-10T13:48:09;22.20;97.20
15815;DHT22;8008;50.024;8.172;2023-05-10T13:50:37;22.00;96.70
15815;DHT22;8008;50.024;8.172;2023-05-10T13:53:07;22.10;95.80
15815;DHT22;8008;50.024;8.172;2023-05-10T13:55:35;22.90;94.90
15815;DHT22;8008;50.024;8.172;2023-05-10T13:58:03;22.20;93.40
15815;DHT22;8008;50.024;8.172;2023-05-10T14:00:31;22.00;94.60
15815;DHT22;8008;50.024;8.172;2023-05-10T14:02:59;22.30;94.10
15815;DHT22;8008;50.024;8.172;2023-05-10T14:05:27;21.70;94.40
15815;DHT22;8008;50.024;8.172;2023-05-10T14:07:55;21.60;94.40
15815;DHT22;8008;50.024;8.172;2023-05-10T14:10:25;21.60;93.70
15815;DHT22;8008;50.024;8.172;2023-05-10T14:12:52;21.70;94.60
15815;DHT22;8008;50.024;8.172;2023-05-10T14:15:20;21.70;93.70
15815;DHT22;8008;50.024;8.172;2023-05-10T14:17:48;21.30;93.70
15815;DHT22;8008;50.024;8.172;2023-05-10T14:20:16;21.00;93.70
15815;DHT22;8008;50.024;8.172;2023-05-10T14:22:44;21.00;95.30
15815;DHT22;8008;50.024;8.172;2023-05-10T14:25:12;20.90;94.40
15815;DHT22;8008;50.024;8.172;2023-05-10T14:27:43;20.60;95.40
15815;DHT22;8008;50.024;8.172;2023-05-10T14:30:11;20.90;95.60
15815;DHT22;8008;50.024;8.172;2023-05-10T14:32:39;21.10;95.00
15815;DHT22;8008;50.024;8.172;2023-05-10T14:35:08;21.50;94.60
15815;DHT22;8008;50.024;8.172;2023-05-10T14:37:39;20.90;93.70
15815;DHT22;8008;50.024;8.172;2023-05-10T14:40:08;20.70;95.20
15815;DHT22;8008;50.024;8.172;2023-05-10T14:42:36;21.00;94.90
15815;DHT22;8008;50.024;8.172;2023-05-10T14:45:06;21.20;94.80
15815;DHT22;8008;50.024;8.172;2023-05-10T14:47:35;21.10;94.10
15815;DHT22;8008;50.024;8.172;2023-05-10T14:50:03;20.90;94.30
15815;DHT22;8008;50.024;8.172;2023-05-10T14:52:32;20.50;93.40
15815;DHT22;8008;50.024;8.172;2023-05-10T14:55:00;20.40;94.20
15815;DHT22;8008;50.024;8.172;2023-05-10T14:57:28;20.40;95.50
15815;DHT22;8008;50.024;8.172;2023-05-10T14:59:57;20.50;94.90
15815;DHT22;8008;50.024;8.172;2023-05-10T15:02:26;20.80;94.10
15815;DHT22;8008;50.024;8.172;2023-05-10T15:04:58;21.20;94.70
15815;DHT22;8008;50.024;8.172;2023-05-10T15:07:26;21.90;95.00
15815;DHT22;8008;50.024;8.172;2023-05-10T15:09:54;21.50;94.20
15815;DHT22;8008;50.024;8.172;2023-05-10T15:12:22;21.40;94.90
15815;DHT22;8008;50.024;8.172;2023-05-10T15:14:50;20.80;92.90
15815;DHT22;8008;50.024;8.172;2023-05-10T15:17:18;20.40;93.50
15815;DHT22;8008;50.024;8.172;2023-05-10T15:19:47;20.00;93.00
15815;DHT22;8008;50.024;8.172;2023-05-10T15:22:15;19.90;94.00
15815;DHT22;8008;50.024;8.172;2023-05-10T15:24:43;20.10;93.20
15815;DHT22;8008;50.024;8.172;2023-05-10T15:27:11;19.90;92.70
15815;DHT22;8008;50.024;8.172;2023-05-10T15:29:39;19.70;93.00
15815;DHT22;8008;50.024;8.172;2023-05-10T15:32:07;19.70;93.30
15815;DHT22;8008;50.024;8.172;2023-05-10T15:34:35;19.60;93.20
15815;DHT22;8008;50.024;8.172;2023-05-10T15:37:04;19.50;93.40
15815;DHT22;8008;50.024;8.172;2023-05-10T15:39:32;19.70;93.60
15815;DHT22;8008;50.024;8.172;2023-05-10T15:42:00;19.80;93.50
15815;DHT22;8008;50.024;8.172;2023-05-10T15:44:29;20.00;93.50
15815;DHT22;8008;50.024;8.172;2023-05-10T15:46:57;20.20;94.30
15815;DHT22;8008;50.024;8.172;2023-05-10T15:49:25;20.10;92.20
15815;DHT22;8008;50.024;8.172;2023-05-10T15:51:53;19.70;92.00
15815;DHT22;8008;50.024;8.172;2023-05-10T15:54:22;19.50;91.90
15815;DHT22;8008;50.024;8.172;2023-05-10T15:56:50;19.40;92.60
15815;DHT22;8008;50.024;8.172;2023-05-10T15:59:20;19.40;92.40
15815;DHT22;8008;50.024;8.172;2023-05-10T16:01:48;19.40;92.90
15815;DHT22;8008;50.024;8.172;2023-05-10T16:04:17;19.50;91.50
15815;DHT22;8008;50.024;8.172;2023-05-10T16:06:44;19.60;92.20
15815;DHT22;8008;50.024;8.172;2023-05-10T16:09:12;19.80;91.40
15815;DHT22;8008;50.024;8.172;2023-05-10T16:11:43;19.80;91.70
15815;DHT22;8008;50.024;8.172;2023-05-10T16:14:11;19.90;92.20
15815;DHT22;8008;50.024;8.172;2023-05-10T16:16:38;19.90;91.20
15815;DHT22;8008;50.024;8.172;2023-05-10T16:19:07;19.90;91.50
15815;DHT22;8008;50.024;8.172;2023-05-10T16:21:34;19.60;92.00
15815;DHT22;8008;50.024;8.172;2023-05-10T16:24:04;19.50;91.70
15815;DHT22;8008;50.024;8.172;2023-05-10T16:26:32;19.60;91.90
15815;DHT22;8008;50.024;8.172;2023-05-10T16:29:03;19.60;91.30
15815;DHT22;8008;50.024;8.172;2023-05-10T16:31:31;19.60;90.90
15815;DHT22;8008;50.024;8.172;2023-05-10T16:33:59;19.60;91.80
15815;DHT22;8008;50.024;8.172;2023-05-10T16:36:27;19.60;89.50
15815;DHT22;8008;50.024;8.172;2023-05-10T16:38:55;19.60;88.50
15815;DHT22;8008;50.024;8.172;2023-05-10T16:41:23;19.40;89.80
15815;DHT22;8008;50.024;8.172;2023-05-10T16:43:52;19.40;88.90
15815;DHT22;8008;50.024;8.172;2023-05-10T16:46:21;19.40;89.10
15815;DHT22;8008;50.024;8.172;2023-05-10T16:48:49;19.40;88.40
15815;DHT22;8008;50.024;8.172;2023-05-10T16:51:17;19.40;89.10
15815;DHT22;8008;50.024;8.172;2023-05-10T16:53:44;19.40;87.50
15815;DHT22;8008;50.024;8.172;2023-05-10T16:56:12;19.50;89.00
15815;DHT22;8008;50.024;8.172;2023-05-10T16:58:40;19.40;88.10
15815;DHT22;8008;50.024;8.172;2023-05-10T17:01:08;19.40;89.80
15815;DHT22;8008;50.024;8.172;2023-05-10T17:03:37;19.30;88.80
15815;DHT22;8008;50.024;8.172;2023-05-10T17:06:06;19.20;89.50
15815;DHT22;8008;50.024;8.172;2023-05-10T17:08:34;19.10;90.80
15815;DHT22;8008;50.024;8.172;2023-05-10T17:11:02;19.20;89.10
15815;DHT22;8008;50.024;8.172;2023-05-10T17:13:30;19.20;88.20
15815;DHT22;8008;50.024;8.172;2023-05-10T17:15:59;19.00;86.50
15815;DHT22;8008;50.024;8.172;2023-05-10T17:18:29;19.00;88.40
15815;DHT22;8008;50.024;8.172;2023-05-10T17:20:58;19.10;89.50
15815;DHT22;8008;50.024;8.172;2023-05-10T17:23:26;19.10;89.00
15815;DHT22;8008;50.024;8.172;2023-05-10T17:25:54;19.20;91.10
15815;DHT22;8008;50.024;8.172;2023-05-10T17:28:24;19.20;91.10
15815;DHT22;8008;50.024;8.172;2023-05-10T17:30:55;19.30;89.20
15815;DHT22;8008;50.024;8.172;2023-05-10T17:33:24;19.10;87.10
15815;DHT22;8008;50.024;8.172;2023-05-10T17:35:52;19.10;87.80
15815;DHT22;8008;50.024;8.172;2023-05-10T17:38:21;19.20;87.00
15815;DHT22;8008;50.024;8.172;2023-05-10T17:40:50;19.00;86.90
15815;DHT22;8008;50.024;8.172;2023-05-10T17:43:18;19.00;87.10
15815;DHT22;8008;50.024;8.172;2023-05-10T17:45:47;18.90;86.70
15815;DHT22;8008;50.024;8.172;2023-05-10T17:48:15;18.80;88.00
15815;DHT22;8008;50.024;8.172;2023-05-10T17:50:43;18.80;86.40
15815;DHT22;8008;50.024;8.172;2023-05-10T17:53:11;18.80;88.40
15815;DHT22;8008;50.024;8.172;2023-05-10T17:55:41;18.80;88.80
15815;DHT22;8008;50.024;8.172;2023-05-10T17:58:10;18.80;88.70
15815;DHT22;8008;50.024;8.172;2023-05-10T18:00:38;19.00;90.30
15815;DHT22;8008;50.024;8.172;2023-05-10T18:03:06;19.10;90.50
15815;DHT22;8008;50.024;8.172;2023-05-10T18:05:35;19.10;89.90
15815;DHT22;8008;50.024;8.172;2023-05-10T18:08:04;19.00;90.40
15815;DHT22;8008;50.024;8.172;2023-05-10T18:10:33;19.00;90.00
15815;DHT22;8008;50.024;8.172;2023-05-10T18:13:02;19.00;90.10
15815;DHT22;8008;50.024;8.172;2023-05-10T18:15:34;18.80;89.00
15815;DHT22;8008;50.024;8.172;2023-05-10T18:18:02;18.70;90.00
15815;DHT22;8008;50.024;8.172;2023-05-10T18:20:31;18.70;90.10
15815;DHT22;8008;50.024;8.172;2023-05-10T18:22:59;18.70;89.40
15815;DHT22;8008;50.024;8.172;2023-05-10T18:25:26;18.70;90.40
15815;DHT22;8008;50.024;8.172;2023-05-10T18:27:54;18.70;91.90
15815;DHT22;8008;50.024;8.172;2023-05-10T18:30:25;18.70;91.00
15815;DHT22;8008;50.024;8.172;2023-05-10T18:32:53;18.60;90.20
15815;DHT22;8008;50.024;8.172;2023-05-10T18:35:21;18.60;91.10
15815;DHT22;8008;50.024;8.172;2023-05-10T18:37:49;18.60;92.70
15815;DHT22;8008;50.024;8.172;2023-05-10T18:40:17;18.60;94.00
15815;DHT22;8008;50.024;8.172;2023-05-10T18:42:45;18.50;94.70
15815;DHT22;8008;50.024;8.172;2023-05-10T18:45:13;18.50;95.80
15815;DHT22;8008;50.024;8.172;2023-05-10T18:47:43;18.40;96.30
15815;DHT22;8008;50.024;8.172;2023-05-10T18:50:10;18.40;96.40
15815;DHT22;8008;50.024;8.172;2023-05-10T18:52:39;18.30;96.80
15815;DHT22;8008;50.024;8.172;2023-05-10T18:55:07;18.30;96.80
15815;DHT22;8008;50.024;8.172;2023-05-10T18:57:35;18.30;97.30